San Fermin Berria — EBVW — position and weather

sailwx.info

Track history (hours):
 
Tides and Currents Weather Stations Pressure Air Temp Water Temp Dewpoint Dewpoint Depression Visibility Wind Speed Wind Dir Waves Ship Positions

San Fermin Berria

Last reported at 2016-Aug-23 23:28 UTC. Time now 2016-Aug-24 19:42 UTC.
Position N 44°01' W 006°37'.

Length 30 m.

Type: Fishing. MMSI: 224114650.

Date/timePositionNaut miles runAvg speedWind from/ knotsBaromVisibWave heightAir tempDewpointWater temp
2016-Aug-23 23:28N 44°01' W 006°37'0 0.2
2016-Aug-23 22:33N 44°01' W 006°37'0 0.3
2016-Aug-23 21:30N 44°02' W 006°37'0 0.2
2016-Aug-23 20:33N 44°02' W 006°37'1 1.3
2016-Aug-23 19:32N 44°01' W 006°37'59 4.5
2016-Aug-23 06:18N 43°54' W 005°16'5 5.9
2016-Aug-23 05:30N 43°49' W 005°16'7 6.9
2016-Aug-23 04:31N 43°44' W 005°23'6 6.7
2016-Aug-23 03:33N 43°40' W 005°30'7 6.9
2016-Aug-23 02:32N 43°35' W 005°37'4 3.0
2016-Aug-23 01:16N 43°33' W 005°42'0 0.0
2016-Aug-23 00:33N 43°33' W 005°42'0 0.0
2016-Aug-22 23:30N 43°33' W 005°42'0 0.0
2016-Aug-22 22:34N 43°33' W 005°42'0 0.0
2016-Aug-22 21:32N 43°33' W 005°42'0 0.0
2016-Aug-22 20:33N 43°33' W 005°42'0 0.0
2016-Aug-22 19:25N 43°33' W 005°42'0 0.0
2016-Aug-22 18:34N 43°33' W 005°42'0 0.0
2016-Aug-22 17:32N 43°33' W 005°42'0 0.0
2016-Aug-22 16:32N 43°33' W 005°42'0 0.0
2016-Aug-22 15:33N 43°33' W 005°42'0 0.0
2016-Aug-22 13:27N 43°33' W 005°42'0 0.0
2016-Aug-22 12:33N 43°33' W 005°42'0 0.0
2016-Aug-22 11:34N 43°33' W 005°42'0 0.0
2016-Aug-22 10:27N 43°33' W 005°42'0 0.0
2016-Aug-22 09:33N 43°33' W 005°42'0 0.0
2016-Aug-22 08:32N 43°33' W 005°42'0 0.0
2016-Aug-22 07:34N 43°33' W 005°42'0 0.0
2016-Aug-22 06:34N 43°33' W 005°42'3 2.7
2016-Aug-22 05:29N 43°35' W 005°38'2 2.0
2016-Aug-22 04:34N 43°36' W 005°37'2 2.1
2016-Aug-22 03:33N 43°35' W 005°38'1 0.7
2016-Aug-22 02:34N 43°34' W 005°39'4 4.1
2016-Aug-22 01:33N 43°36' W 005°34'6 5.6
2016-Aug-22 00:25N 43°38' W 005°26'6 6.8
2016-Aug-21 23:29N 43°40' W 005°17'154 3.1
2016-Aug-19 22:10N 43°45' W 001°44'5 5.4
2016-Aug-19 21:14N 43°40' W 001°44'0 0.2
2016-Aug-19 19:10N 43°40' W 001°43'5 8.0
2016-Aug-19 18:32N 43°35' W 001°44'9 8.6
2016-Aug-19 17:33N 43°27' W 001°46'4 3.6
2016-Aug-19 16:33N 43°23' W 001°48'0 0.0
2016-Aug-19 15:33N 43°23' W 001°48'0 0.0
2016-Aug-19 14:33N 43°23' W 001°48'0 0.0
2016-Aug-19 13:33N 43°23' W 001°48'0 0.0
2016-Aug-19 12:33N 43°23' W 001°48'0 0.0
2016-Aug-19 11:33N 43°23' W 001°48'0 0.0
2016-Aug-19 10:33N 43°23' W 001°48'0 0.0
2016-Aug-19 09:33N 43°23' W 001°48'0 0.0
2016-Aug-19 08:33N 43°23' W 001°48'0 0.0
2016-Aug-19 07:33N 43°23' W 001°48'0 0.1
2016-Aug-19 06:33N 43°23' W 001°47'0 0.0
2016-Aug-19 05:29N 43°23' W 001°47'0 0.1
2016-Aug-19 04:33N 43°23' W 001°48'0 0.0
2016-Aug-19 03:33N 43°23' W 001°48'0 0.0
2016-Aug-19 02:33N 43°23' W 001°48'0 0.0
2016-Aug-19 01:33N 43°23' W 001°48'117 2.7
2016-Aug-17 06:26N 45°00' W 003°19'5 0.3
2016-Aug-16 10:18N 44°60' W 003°11'36 0.8
2016-Aug-14 13:30N 44°52' W 004°01'8 8.6
2016-Aug-14 12:33N 44°46' W 003°54'8 8.4
2016-Aug-14 11:33N 44°43' W 003°43'2 0.8
2016-Aug-14 08:14N 44°46' W 003°41'8 6.9
2016-Aug-14 07:08N 44°47' W 003°51'10 4.0
2016-Aug-14 04:32N 44°47' W 004°06'  
Track history (hours):
 
Tides and Currents Weather Stations Pressure Air Temp Water Temp Dewpoint Dewpoint Depression Visibility Wind Speed Wind Dir Waves Ship Positions

San Fermin Berria

Last reported at 2016-Aug-23 23:28 UTC. Time now 2016-Aug-24 19:42 UTC.
Position N 44°01' W 006°37'.

Length 30 m.

Type: Fishing. MMSI: 224114650.

Date/timePositionNaut miles runAvg speedWind from/ knotsBaromVisibWave heightAir tempDewpointWater temp
2016-Aug-23 23:28N 44°01' W 006°37'0 0.2
2016-Aug-23 22:33N 44°01' W 006°37'0 0.3
2016-Aug-23 21:30N 44°02' W 006°37'0 0.2
2016-Aug-23 20:33N 44°02' W 006°37'1 1.3
2016-Aug-23 19:32N 44°01' W 006°37'59 4.5
2016-Aug-23 06:18N 43°54' W 005°16'5 5.9
2016-Aug-23 05:30N 43°49' W 005°16'7 6.9
2016-Aug-23 04:31N 43°44' W 005°23'6 6.7
2016-Aug-23 03:33N 43°40' W 005°30'7 6.9
2016-Aug-23 02:32N 43°35' W 005°37'4 3.0
2016-Aug-23 01:16N 43°33' W 005°42'0 0.0
2016-Aug-23 00:33N 43°33' W 005°42'0 0.0
2016-Aug-22 23:30N 43°33' W 005°42'0 0.0
2016-Aug-22 22:34N 43°33' W 005°42'0 0.0
2016-Aug-22 21:32N 43°33' W 005°42'0 0.0
2016-Aug-22 20:33N 43°33' W 005°42'0 0.0
2016-Aug-22 19:25N 43°33' W 005°42'0 0.0
2016-Aug-22 18:34N 43°33' W 005°42'0 0.0
2016-Aug-22 17:32N 43°33' W 005°42'0 0.0
2016-Aug-22 16:32N 43°33' W 005°42'0 0.0
2016-Aug-22 15:33N 43°33' W 005°42'0 0.0
2016-Aug-22 13:27N 43°33' W 005°42'0 0.0
2016-Aug-22 12:33N 43°33' W 005°42'0 0.0
2016-Aug-22 11:34N 43°33' W 005°42'0 0.0
2016-Aug-22 10:27N 43°33' W 005°42'0 0.0
2016-Aug-22 09:33N 43°33' W 005°42'0 0.0
2016-Aug-22 08:32N 43°33' W 005°42'0 0.0
2016-Aug-22 07:34N 43°33' W 005°42'0 0.0
2016-Aug-22 06:34N 43°33' W 005°42'3 2.7
2016-Aug-22 05:29N 43°35' W 005°38'2 2.0
2016-Aug-22 04:34N 43°36' W 005°37'2 2.1
2016-Aug-22 03:33N 43°35' W 005°38'1 0.7
2016-Aug-22 02:34N 43°34' W 005°39'4 4.1
2016-Aug-22 01:33N 43°36' W 005°34'6 5.6
2016-Aug-22 00:25N 43°38' W 005°26'6 6.8
2016-Aug-21 23:29N 43°40' W 005°17'154 3.1
2016-Aug-19 22:10N 43°45' W 001°44'5 5.4
2016-Aug-19 21:14N 43°40' W 001°44'0 0.2
2016-Aug-19 19:10N 43°40' W 001°43'5 8.0
2016-Aug-19 18:32N 43°35' W 001°44'9 8.6
2016-Aug-19 17:33N 43°27' W 001°46'4 3.6
2016-Aug-19 16:33N 43°23' W 001°48'0 0.0
2016-Aug-19 15:33N 43°23' W 001°48'0 0.0
2016-Aug-19 14:33N 43°23' W 001°48'0 0.0
2016-Aug-19 13:33N 43°23' W 001°48'0 0.0
2016-Aug-19 12:33N 43°23' W 001°48'0 0.0
2016-Aug-19 11:33N 43°23' W 001°48'0 0.0
2016-Aug-19 10:33N 43°23' W 001°48'0 0.0
2016-Aug-19 09:33N 43°23' W 001°48'0 0.0
2016-Aug-19 08:33N 43°23' W 001°48'0 0.0
2016-Aug-19 07:33N 43°23' W 001°48'0 0.1
2016-Aug-19 06:33N 43°23' W 001°47'0 0.0
2016-Aug-19 05:29N 43°23' W 001°47'0 0.1
2016-Aug-19 04:33N 43°23' W 001°48'0 0.0
2016-Aug-19 03:33N 43°23' W 001°48'0 0.0
2016-Aug-19 02:33N 43°23' W 001°48'0 0.0
2016-Aug-19 01:33N 43°23' W 001°48'117 2.7
2016-Aug-17 06:26N 45°00' W 003°19'5 0.3
2016-Aug-16 10:18N 44°60' W 003°11'36 0.8
2016-Aug-14 13:30N 44°52' W 004°01'8 8.6
2016-Aug-14 12:33N 44°46' W 003°54'8 8.4
2016-Aug-14 11:33N 44°43' W 003°43'2 0.8
2016-Aug-14 08:14N 44°46' W 003°41'8 6.9
2016-Aug-14 07:08N 44°47' W 003°51'10 4.0
2016-Aug-14 04:32N 44°47' W 004°06'  

Dump ship's entire track history